Time;durP1;ratioP1;P1;durP2;ratioP2;P2;SDS_P1;SDS_P2;PMS_P1;PMS_P2;Temp;Humidity;BMP_temperature;BMP_pressure;BME280_temperature;BME280_humidity;BME280_pressure;Samples;Min_cycle;Max_cycle;Signal;HPM_P1;HPM_P2
2022/06/29 00:00:26;;;;;;;13.55;12.18;;;;;;;15.49;94.81;95979.75;2072601;28;20053;-77
2022/06/29 00:01:28;;;;;;;14.82;13.30;;;;;;;15.46;94.62;95981.75;2070273;28;20525;-78
2022/06/29 00:02:29;;;;;;;14.68;13.18;;;;;;;15.46;95.36;95973.91;2082180;28;20052;-77
2022/06/29 00:03:30;;;;;;;16.45;13.07;;;;;;;15.40;95.02;95975.16;2073394;28;20057;-77
2022/06/29 00:04:31;;;;;;;14.85;12.93;;;;;;;15.40;95.17;95975.97;2065921;28;20050;-77
2022/06/29 00:05:32;;;;;;;15.82;13.98;;;;;;;15.40;95.10;95972.53;2081521;28;20038;-77
2022/06/29 00:06:34;;;;;;;15.63;12.88;;;;;;;15.38;95.50;95971.78;2089698;28;20640;-77
2022/06/29 00:07:35;;;;;;;17.10;13.93;;;;;;;15.40;95.51;95968.13;2073765;28;20038;-77
2022/06/29 00:08:36;;;;;;;17.13;15.20;;;;;;;15.37;95.50;95965.72;2072809;28;20048;-77
2022/06/29 00:09:38;;;;;;;16.30;13.50;;;;;;;15.34;95.90;95970.31;2080467;28;20045;-77
2022/06/29 00:10:39;;;;;;;18.30;14.68;;;;;;;15.37;95.64;95968.34;2081417;28;20497;-77
2022/06/29 00:11:40;;;;;;;17.13;15.30;;;;;;;15.34;95.77;95962.44;2083456;28;20049;-77
2022/06/29 00:12:43;;;;;;;16.50;14.38;;;;;;;15.18;95.69;95946.94;2057707;28;20176;-77
2022/06/29 00:13:44;;;;;;;18.55;16.10;;;;;;;15.24;96.22;95964.03;2057670;28;20042;-77
2022/06/29 00:14:45;;;;;;;16.70;15.00;;;;;;;15.22;96.20;95961.50;2070950;28;20058;-77
2022/06/29 00:15:46;;;;;;;18.70;15.32;;;;;;;15.21;95.94;95965.06;2082618;28;20042;-77
2022/06/29 00:16:47;;;;;;;17.55;15.73;;;;;;;15.18;95.91;95968.72;2072245;28;20481;-78
2022/06/29 00:17:49;;;;;;;19.00;16.60;;;;;;;15.11;96.90;95961.38;2070648;28;20042;-77
2022/06/29 00:18:50;;;;;;;18.80;16.90;;;;;;;15.12;96.76;95963.88;2064563;28;20533;-77
2022/06/29 00:19:51;;;;;;;20.67;17.33;;;;;;;15.10;97.07;95962.28;2064845;28;20057;-77
2022/06/29 00:20:52;;;;;;;26.45;15.32;;;;;;;15.05;97.02;95954.78;2064934;28;20057;-78
2022/06/29 00:21:54;;;;;;;18.70;16.67;;;;;;;15.07;96.72;95958.09;2073182;28;20057;-78
2022/06/29 00:22:55;;;;;;;17.00;14.73;;;;;;;15.02;96.73;95960.19;2067884;28;20054;-77
2022/06/29 00:23:56;;;;;;;19.08;16.75;;;;;;;15.03;97.24;95959.25;2073463;28;20030;-77
2022/06/29 00:24:57;;;;;;;21.52;16.92;;;;;;;15.04;97.24;95965.31;2063253;28;20053;-77
2022/06/29 00:25:59;;;;;;;25.15;14.90;;;;;;;15.00;97.43;95962.91;2064972;28;20042;-77
2022/06/29 00:27:00;;;;;;;17.10;15.20;;;;;;;15.03;97.10;95961.88;2080948;28;20049;-77
2022/06/29 00:28:01;;;;;;;19.70;17.63;;;;;;;15.06;97.15;95968.69;2081032;28;20056;-78
2022/06/29 00:29:03;;;;;;;18.33;16.30;;;;;;;15.01;97.17;95963.75;2065446;28;20050;-78
2022/06/29 00:30:04;;;;;;;17.08;14.80;;;;;;;15.05;97.15;95954.78;2065136;28;20054;-77
2022/06/29 00:31:06;;;;;;;20.58;18.05;;;;;;;15.08;96.94;95972.03;2072836;28;20041;-77
2022/06/29 00:32:07;;;;;;;21.48;18.60;;;;;;;15.06;97.01;95961.66;2079577;28;20045;-77
2022/06/29 00:33:08;;;;;;;21.92;19.20;;;;;;;15.09;97.34;95968.47;2066258;28;20051;-77
2022/06/29 00:34:10;;;;;;;24.77;20.67;;;;;;;15.08;97.19;95965.03;2072334;28;20053;-77
2022/06/29 00:35:11;;;;;;;21.23;18.92;;;;;;;15.05;97.50;95954.78;2073347;28;20033;-77
2022/06/29 00:36:12;;;;;;;24.95;20.20;;;;;;;15.04;97.73;95958.31;2081152;28;20048;-77
2022/06/29 00:37:14;;;;;;;23.65;21.15;;;;;;;15.03;97.67;95956.66;2080736;28;20061;-78
2022/06/29 00:38:15;;;;;;;23.60;20.88;;;;;;;15.08;97.57;95954.56;2072775;28;20108;-77
2022/06/29 00:39:16;;;;;;;26.48;19.77;;;;;;;15.06;97.62;95948.59;2069615;28;20447;-77
2022/06/29 00:40:18;;;;;;;19.55;17.27;;;;;;;15.05;97.50;95938.22;2072471;28;20057;-77
2022/06/29 00:41:19;;;;;;;24.35;18.55;;;;;;;15.15;96.97;95940.13;2076825;28;20042;-77
2022/06/29 00:42:20;;;;;;;18.38;16.48;;;;;;;15.18;97.34;95934.72;2080571;28;20045;-77
2022/06/29 00:43:23;;;;;;;24.65;20.50;;;;;;;15.33;96.69;95948.53;2065449;28;20132;-77
2022/06/29 00:44:24;;;;;;;22.73;20.38;;;;;;;15.41;96.31;95951.47;2065717;28;20078;-77
2022/06/29 00:45:26;;;;;;;21.65;19.13;;;;;;;15.51;95.92;95945.66;2072555;28;20054;-77
2022/06/29 00:46:27;;;;;;;24.58;20.95;;;;;;;15.53;96.24;95946.34;2056889;28;20046;-77
2022/06/29 00:47:28;;;;;;;26.75;21.88;;;;;;;15.56;96.07;95946.16;2072464;28;20053;-77
2022/06/29 00:48:29;;;;;;;24.20;21.45;;;;;;;15.60;95.57;95939.78;2071965;28;20052;-77
2022/06/29 00:49:32;;;;;;;25.00;20.67;;;;;;;15.64;95.89;95946.47;2070323;28;20411;-77
2022/06/29 00:50:33;;;;;;;28.90;22.70;;;;;;;15.69;95.80;95946.19;2073346;28;20029;-77
2022/06/29 00:51:34;;;;;;;27.67;23.80;;;;;;;15.72;95.05;95932.91;2073080;28;20038;-78
2022/06/29 00:52:37;;;;;;;24.92;21.45;;;;;;;15.80;95.13;95935.84;2073472;28;20053;-78
2022/06/29 00:53:41;;;;;;;25.52;21.25;;;;;;;15.83;94.64;95938.25;2064930;28;20042;-77
2022/06/29 00:54:43;;;;;;;24.88;21.45;;;;;;;15.80;94.28;95928.81;2080928;28;20049;-77
2022/06/29 00:55:45;;;;;;;25.45;22.75;;;;;;;15.86;94.70;95941.47;2085841;28;20108;-77
2022/06/29 00:56:46;;;;;;;29.23;22.67;;;;;;;15.87;94.78;95942.31;2078476;28;20056;-77
2022/06/29 00:57:48;;;;;;;23.90;21.30;;;;;;;15.84;94.63;95932.03;2064932;28;20038;-77
2022/06/29 00:58:49;;;;;;;24.63;21.25;;;;;;;15.85;94.33;95939.81;2064360;28;20046;-77
2022/06/29 00:59:53;;;;;;;26.45;23.30;;;;;;;15.85;94.88;95928.47;2064434;28;20412;-78
2022/06/29 01:00:56;;;;;;;26.15;22.40;;;;;;;15.77;94.65;95923.78;2065794;28;20532;-78
2022/06/29 01:01:58;;;;;;;25.77;22.08;;;;;;;15.85;94.22;95933.72;2057125;28;20065;-77
2022/06/29 01:03:00;;;;;;;23.75;21.23;;;;;;;15.85;94.77;95938.94;2060325;28;20030;-77
2022/06/29 01:04:02;;;;;;;25.40;22.23;;;;;;;15.80;94.62;95930.59;2089461;28;20048;-78
2022/06/29 01:05:04;;;;;;;25.55;21.45;;;;;;;15.93;94.44;95934.03;2084406;28;20043;-78
2022/06/29 01:06:06;;;;;;;23.77;21.17;;;;;;;15.98;93.86;95933.69;2068927;28;20046;-78
2022/06/29 01:07:07;;;;;;;22.85;20.42;;;;;;;15.96;94.50;95941.69;2057047;28;20061;-77
2022/06/29 01:08:08;;;;;;;24.05;20.85;;;;;;;15.93;94.14;95944.53;2056813;28;20431;-77
2022/06/29 01:09:10;;;;;;;28.50;22.27;;;;;;;15.96;94.37;95948.69;2064328;28;20541;-77
2022/06/29 01:10:11;;;;;;;27.20;20.27;;;;;;;15.95;94.25;95947.84;2063631;28;20058;-77
2022/06/29 01:11:13;;;;;;;22.00;19.60;;;;;;;15.99;93.83;95951.09;2071891;28;20524;-77
2022/06/29 01:12:14;;;;;;;22.60;19.98;;;;;;;16.00;94.20;95950.97;2071371;28;20124;-78
2022/06/29 01:13:15;;;;;;;22.50;19.70;;;;;;;15.99;93.91;95949.31;2064529;28;20046;-78
2022/06/29 01:14:16;;;;;;;25.20;20.27;;;;;;;16.01;94.51;95942.19;2071854;28;20041;-78
2022/06/29 01:15:18;;;;;;;25.45;19.17;;;;;;;16.05;94.07;95937.56;2064655;28;20057;-77
2022/06/29 01:16:20;;;;;;;22.83;19.98;;;;;;;16.02;94.04;95936.00;2072467;28;20058;-77
2022/06/29 01:17:22;;;;;;;23.73;18.92;;;;;;;15.96;94.08;95930.34;2065164;28;20118;-77
2022/06/29 01:18:23;;;;;;;23.10;20.27;;;;;;;16.02;94.03;95938.63;2064992;28;20043;-78
2022/06/29 01:19:24;;;;;;;21.10;18.35;;;;;;;16.00;94.05;95943.13;2072222;28;20045;-78
2022/06/29 01:20:26;;;;;;;21.67;18.00;;;;;;;16.06;94.24;95942.72;2064529;28;20057;-78
2022/06/29 01:21:28;;;;;;;21.20;17.88;;;;;;;16.08;93.44;95948.66;2064704;28;20035;-77
2022/06/29 01:22:29;;;;;;;20.13;17.67;;;;;;;16.04;94.24;95939.38;2072020;28;20049;-77
2022/06/29 01:23:32;;;;;;;17.73;15.82;;;;;;;16.04;94.13;95942.00;2065266;28;20446;-77
2022/06/29 01:24:33;;;;;;;21.73;19.17;;;;;;;16.05;93.82;95940.19;2072555;28;20057;-77
2022/06/29 01:25:34;;;;;;;20.50;18.40;;;;;;;16.05;93.50;95941.03;2064790;28;20370;-77
2022/06/29 01:26:35;;;;;;;22.40;18.15;;;;;;;16.03;94.73;95937.66;2064192;28;20042;-77
2022/06/29 01:27:36;;;;;;;19.38;17.15;;;;;;;16.07;94.05;95940.94;2064344;28;20379;-77
2022/06/29 01:28:43;;;;;;;23.95;19.45;;;;;;;16.05;94.43;95933.16;2060437;28;20050;-78
2022/06/29 01:29:44;;;;;;;21.45;17.75;;;;;;;16.01;94.24;95938.72;2064423;28;20054;-78
2022/06/29 01:30:46;;;;;;;24.83;18.02;;;;;;;16.04;94.04;95933.28;2064908;28;20050;-77
2022/06/29 01:31:47;;;;;;;21.58;19.35;;;;;;;16.03;93.54;95936.84;2072472;28;20060;-77
2022/06/29 01:32:48;;;;;;;20.13;17.98;;;;;;;15.99;93.65;95931.00;2071906;28;20072;-77
2022/06/29 01:33:49;;;;;;;23.67;18.95;;;;;;;15.99;94.52;95936.22;2064964;28;20050;-78
2022/06/29 01:34:52;;;;;;;21.58;19.10;;;;;;;15.97;94.33;95927.63;2080391;28;20048;-77
2022/06/29 01:35:53;;;;;;;22.77;18.05;;;;;;;15.99;94.07;95931.00;2076933;28;20437;-77
2022/06/29 01:36:54;;;;;;;19.52;17.48;;;;;;;16.05;94.62;95930.56;2063004;28;20042;-77
2022/06/29 01:37:55;;;;;;;23.90;18.70;;;;;;;16.06;94.60;95932.25;2058908;28;20046;-77
2022/06/29 01:38:57;;;;;;;21.65;19.33;;;;;;;16.07;93.53;95936.53;2064127;28;20529;-77
2022/06/29 01:39:58;;;;;;;23.27;19.25;;;;;;;16.08;93.84;95930.34;2072390;28;20042;-77
2022/06/29 01:40:59;;;;;;;20.27;17.63;;;;;;;16.07;93.74;95930.47;2056702;28;20046;-78
2022/06/29 01:42:00;;;;;;;23.50;18.27;;;;;;;16.09;93.86;95926.78;2070930;28;20038;-78
2022/06/29 01:43:01;;;;;;;23.30;18.25;;;;;;;16.15;94.26;95922.91;2075247;28;20053;-78
2022/06/29 01:44:03;;;;;;;18.27;16.27;;;;;;;16.17;93.29;95920.16;2075163;28;20545;-77
2022/06/29 01:45:05;;;;;;;19.52;17.35;;;;;;;16.16;93.19;95921.94;2064009;28;20057;-78
2022/06/29 01:46:06;;;;;;;24.55;17.48;;;;;;;16.18;93.85;95927.09;2055627;28;20427;-77
2022/06/29 01:47:07;;;;;;;23.85;19.50;;;;;;;16.10;92.83;95922.38;2064586;28;20061;-78
2022/06/29 01:48:08;;;;;;;23.13;19.42;;;;;;;16.11;94.14;95924.03;2063710;28;20042;-78
2022/06/29 01:49:10;;;;;;;21.75;19.42;;;;;;;16.05;94.44;95924.47;2048665;28;20062;-77
2022/06/29 01:50:11;;;;;;;26.83;20.63;;;;;;;16.00;93.92;95916.94;2056542;28;20047;-78
2022/06/29 01:51:12;;;;;;;22.25;19.95;;;;;;;15.99;94.02;95919.69;2081078;28;20037;-78
2022/06/29 01:52:13;;;;;;;23.35;20.85;;;;;;;15.94;94.37;95917.38;2063882;28;20038;-77
2022/06/29 01:53:15;;;;;;;21.75;18.98;;;;;;;15.96;94.75;95914.63;2072368;28;20049;-76
2022/06/29 01:54:16;;;;;;;24.42;21.83;;;;;;;15.89;94.74;95916.84;2072062;28;20053;-77
2022/06/29 01:55:17;;;;;;;24.08;21.48;;;;;;;15.91;95.02;95925.44;2064699;28;20540;-78
2022/06/29 01:56:18;;;;;;;25.85;22.15;;;;;;;15.91;94.08;95919.38;2048854;28;20058;-78
2022/06/29 01:57:20;;;;;;;24.15;21.25;;;;;;;15.89;94.58;95914.25;2064423;28;20046;-77
2022/06/29 01:58:21;;;;;;;25.40;22.58;;;;;;;15.94;95.09;95917.38;2071921;28;20046;-78
2022/06/29 01:59:22;;;;;;;26.08;21.63;;;;;;;15.92;94.84;95911.41;2072856;28;20046;-78
2022/06/29 02:00:23;;;;;;;26.40;21.17;;;;;;;15.93;94.40;95915.72;2076768;28;20041;-78
2022/06/29 02:01:24;;;;;;;27.45;22.15;;;;;;;15.87;94.31;95916.94;2072318;28;20422;-78
2022/06/29 02:02:26;;;;;;;26.52;23.65;;;;;;;15.80;95.04;95913.09;2056025;28;20061;-77
2022/06/29 02:03:27;;;;;;;29.88;22.95;;;;;;;15.78;95.07;95919.38;2056287;28;20051;-78
2022/06/29 02:04:28;;;;;;;26.50;23.13;;;;;;;15.70;95.23;95911.22;2064002;28;20510;-77
2022/06/29 02:05:29;;;;;;;30.05;24.52;;;;;;;15.69;95.28;95909.53;2063797;28;20046;-78
2022/06/29 02:06:31;;;;;;;28.42;24.45;;;;;;;15.69;95.70;95909.53;2072203;28;20041;-78
2022/06/29 02:07:32;;;;;;;29.85;24.55;;;;;;;15.65;95.81;95907.09;2071969;28;20049;-78
2022/06/29 02:08:33;;;;;;;29.42;24.60;;;;;;;15.62;95.98;95907.31;2047587;28;20043;-78
2022/06/29 02:09:34;;;;;;;27.00;23.85;;;;;;;15.63;95.97;95901.13;2078568;28;20429;-78
2022/06/29 02:10:35;;;;;;;24.48;21.17;;;;;;;15.71;95.59;95899.81;2080456;28;20049;-78
2022/06/29 02:11:37;;;;;;;26.30;21.75;;;;;;;15.73;95.42;95892.69;2077912;28;20041;-78
2022/06/29 02:12:38;;;;;;;27.67;21.30;;;;;;;15.74;95.72;95908.28;2063932;28;20050;-77
2022/06/29 02:13:39;;;;;;;24.33;21.67;;;;;;;15.69;95.76;95896.44;2056247;28;20055;-77
2022/06/29 02:14:40;;;;;;;28.10;23.33;;;;;;;15.70;95.97;95912.06;2071351;28;20042;-78
2022/06/29 02:15:42;;;;;;;25.25;22.35;;;;;;;15.64;95.23;95915.91;2072511;28;20053;-78
2022/06/29 02:16:43;;;;;;;30.00;23.70;;;;;;;15.61;95.53;95910.03;2080379;28;20048;-78
2022/06/29 02:17:44;;;;;;;26.25;21.25;;;;;;;15.59;95.95;95912.75;2080845;28;20053;-78
2022/06/29 02:18:46;;;;;;;30.52;24.17;;;;;;;15.57;96.13;95909.41;2080428;28;20037;-77
2022/06/29 02:19:47;;;;;;;28.60;24.20;;;;;;;15.57;95.49;95906.78;2064599;28;20041;-77
2022/06/29 02:20:48;;;;;;;27.20;22.98;;;;;;;15.53;96.47;95901.84;2056480;28;20043;-78
2022/06/29 02:21:50;;;;;;;28.50;24.83;;;;;;;15.53;96.29;95902.72;2072446;28;20046;-78
2022/06/29 02:22:51;;;;;;;29.27;24.33;;;;;;;15.50;96.47;95907.31;2079971;28;20057;-78
2022/06/29 02:23:52;;;;;;;31.83;25.92;;;;;;;15.48;96.13;95898.75;2075678;28;20559;-77
2022/06/29 02:24:53;;;;;;;28.50;25.42;;;;;;;15.50;97.20;95902.91;2079181;28;20406;-77
2022/06/29 02:25:55;;;;;;;30.77;26.30;;;;;;;15.47;97.43;95895.28;2076868;28;20049;-77
2022/06/29 02:26:56;;;;;;;30.10;25.67;;;;;;;15.46;97.22;95896.22;2080302;28;20045;-78
2022/06/29 02:27:57;;;;;;;33.40;26.25;;;;;;;15.42;97.68;95890.38;2063693;28;20046;-78
2022/06/29 02:28:59;;;;;;;32.25;27.23;;;;;;;15.40;97.61;95886.19;2063870;28;20061;-77
2022/06/29 02:30:00;;;;;;;35.55;27.08;;;;;;;15.39;97.25;95890.56;2063991;28;20050;-78
2022/06/29 02:35:02;;;;;;;33.40;27.02;;;;;;;15.41;96.97;95883.44;2077943;28;20061;-77
2022/06/29 02:36:04;;;;;;;31.50;26.40;;;;;;;15.42;97.45;95890.38;2064725;28;20054;-77
2022/06/29 02:37:05;;;;;;;34.17;26.40;;;;;;;15.46;96.70;95891.00;2056698;28;20047;-77
2022/06/29 02:38:07;;;;;;;33.75;26.30;;;;;;;15.50;97.00;95884.59;2055984;28;20042;-78
2022/06/29 02:39:08;;;;;;;31.33;27.27;;;;;;;15.51;96.54;95882.84;2048576;28;20050;-78
2022/06/29 02:40:10;;;;;;;34.88;26.83;;;;;;;15.47;96.44;95873.50;2063788;28;20042;-78
2022/06/29 02:41:11;;;;;;;32.28;25.60;;;;;;;15.49;96.30;95879.47;2071601;28;22015;-77
2022/06/29 02:42:13;;;;;;;33.90;27.52;;;;;;;15.47;97.28;95884.81;2076525;28;20049;-77
2022/06/29 02:43:14;;;;;;;28.38;24.88;;;;;;;15.43;96.99;95875.50;2071850;28;20414;-78
2022/06/29 02:44:15;;;;;;;31.65;24.20;;;;;;;15.48;97.07;95883.03;2071882;28;20049;-78
2022/06/29 02:45:16;;;;;;;31.13;26.58;;;;;;;15.46;97.00;95880.53;2088188;28;20055;-77
2022/06/29 02:46:18;;;;;;;28.35;23.70;;;;;;;15.48;96.98;95877.81;2080364;28;20048;-78
2022/06/29 02:47:19;;;;;;;32.30;26.10;;;;;;;15.46;96.65;95875.28;2063952;28;20069;-77
2022/06/29 02:48:20;;;;;;;30.98;25.85;;;;;;;15.46;97.20;95875.28;2070628;28;20057;-78
2022/06/29 02:49:22;;;;;;;29.95;25.58;;;;;;;15.42;97.09;95873.81;2067957;28;20038;-78
2022/06/29 02:50:23;;;;;;;38.15;28.42;;;;;;;15.40;97.00;95871.31;2071083;28;20482;-78
2022/06/29 02:51:25;;;;;;;33.15;26.73;;;;;;;15.36;96.78;95855.91;2071633;28;20101;-77
2022/06/29 02:52:26;;;;;;;31.45;25.83;;;;;;;15.32;97.17;95852.69;2064227;28;20038;-77
2022/06/29 02:53:27;;;;;;;35.10;29.50;;;;;;;15.43;97.18;95868.47;2072707;28;20041;-77
2022/06/29 02:54:28;;;;;;;29.42;23.80;;;;;;;15.47;97.07;95863.03;2055882;28;20483;-78
2022/06/29 02:55:30;;;;;;;30.25;23.77;;;;;;;15.49;97.21;95859.38;2070573;28;20629;-78
2022/06/29 02:56:31;;;;;;;36.13;27.65;;;;;;;15.53;97.07;95859.97;2063916;28;20046;-77
2022/06/29 02:57:32;;;;;;;35.35;27.35;;;;;;;15.53;96.88;95855.63;2063434;28;20046;-78
2022/06/29 02:58:34;;;;;;;32.40;25.58;;;;;;;15.51;97.00;95857.50;2071023;28;20628;-78
2022/06/29 02:59:35;;;;;;;31.52;27.15;;;;;;;15.56;96.87;95852.78;2072209;28;20411;-77
2022/06/29 03:00:36;;;;;;;31.85;26.70;;;;;;;15.65;97.06;95856.53;2071775;28;20068;-77
2022/06/29 03:01:37;;;;;;;30.85;24.85;;;;;;;15.69;95.87;95858.03;2063768;28;20057;-77
2022/06/29 03:02:39;;;;;;;26.42;23.63;;;;;;;15.77;95.53;95863.56;2080000;28;20045;-77
2022/06/29 03:03:40;;;;;;;31.17;25.67;;;;;;;15.81;95.68;95865.03;2074679;28;20060;-77
2022/06/29 03:04:41;;;;;;;29.00;24.67;;;;;;;15.80;95.14;95865.97;2065714;28;20414;-78
2022/06/29 03:05:43;;;;;;;29.35;24.38;;;;;;;15.79;95.54;95869.50;2072030;28;20049;-78
2022/06/29 03:06:44;;;;;;;27.45;22.85;;;;;;;15.85;95.22;95870.88;2071576;28;20045;-78
2022/06/29 03:07:45;;;;;;;29.58;23.75;;;;;;;15.83;95.03;95867.53;2071744;28;20065;-78
2022/06/29 03:08:46;;;;;;;27.77;22.90;;;;;;;15.87;95.63;95871.59;2072044;28;20044;-77
2022/06/29 03:09:48;;;;;;;27.48;22.85;;;;;;;15.90;95.28;95873.16;2056330;28;20051;-78
2022/06/29 03:10:49;;;;;;;30.27;25.00;;;;;;;15.90;94.76;95875.78;2057607;28;20054;-78
2022/06/29 03:11:50;;;;;;;33.67;24.63;;;;;;;15.93;95.08;95870.34;2051857;28;20051;-78
2022/06/29 03:12:51;;;;;;;29.45;24.50;;;;;;;15.90;95.50;95871.38;2063957;28;20069;-78
2022/06/29 03:13:53;;;;;;;26.73;22.80;;;;;;;15.92;94.57;95874.75;2073490;28;20057;-77
2022/06/29 03:14:54;;;;;;;25.73;22.83;;;;;;;15.97;94.88;95869.19;2087914;28;20044;-78
2022/06/29 03:15:55;;;;;;;29.50;24.48;;;;;;;16.00;95.19;95874.19;2079545;28;20585;-77
2022/06/29 03:16:57;;;;;;;26.98;23.83;;;;;;;15.97;94.47;95864.78;2072379;28;20077;-78
2022/06/29 03:17:58;;;;;;;31.52;22.92;;;;;;;16.02;94.62;95865.28;2071744;28;20042;-78
2022/06/29 03:19:00;;;;;;;32.92;24.10;;;;;;;16.01;95.17;95871.50;2068335;28;20061;-77
2022/06/29 03:20:04;;;;;;;27.77;23.02;;;;;;;16.09;94.09;95874.41;2071346;28;20433;-78
2022/06/29 03:21:05;;;;;;;28.50;23.77;;;;;;;16.09;94.22;95876.16;2072140;28;20041;-78
2022/06/29 03:22:06;;;;;;;31.60;24.55;;;;;;;16.06;93.21;95879.84;2079813;28;20614;-78
2022/06/29 03:23:08;;;;;;;28.73;23.98;;;;;;;16.07;93.64;95889.38;2088396;28;20120;-78
2022/06/29 03:24:09;;;;;;;30.60;23.52;;;;;;;16.10;94.12;95891.78;2079665;28;20045;-78
2022/06/29 03:25:10;;;;;;;27.40;22.13;;;;;;;16.11;93.97;95895.22;2072071;28;20049;-78
2022/06/29 03:26:12;;;;;;;27.98;22.55;;;;;;;16.13;93.89;95892.50;2079820;28;20049;-78
2022/06/29 03:27:13;;;;;;;25.88;21.20;;;;;;;16.12;94.29;95906.53;2071402;28;20433;-78
2022/06/29 03:28:14;;;;;;;26.58;19.55;;;;;;;16.11;94.67;95903.09;2062502;28;20499;-78
2022/06/29 03:29:15;;;;;;;26.38;19.83;;;;;;;16.12;93.86;95909.16;2063962;28;20418;-78
2022/06/29 03:30:18;;;;;;;26.05;19.80;;;;;;;16.11;93.94;95913.56;2077331;28;20049;-78
2022/06/29 03:31:20;;;;;;;24.45;20.10;;;;;;;16.13;94.87;95911.69;2080519;28;20041;-78
2022/06/29 03:32:21;;;;;;;27.08;21.67;;;;;;;16.14;93.87;95912.50;2088030;28;20053;-78
2022/06/29 03:33:22;;;;;;;27.88;21.30;;;;;;;16.18;94.05;95917.44;2080166;28;20045;-78
2022/06/29 03:34:23;;;;;;;24.15;21.05;;;;;;;16.17;93.76;95917.53;2071779;28;20050;-78
2022/06/29 03:35:25;;;;;;;24.17;21.00;;;;;;;16.15;93.58;95911.59;2080057;28;20049;-78
2022/06/29 03:36:26;;;;;;;24.27;19.75;;;;;;;16.19;93.67;95915.66;2063631;28;20050;-78
2022/06/29 03:37:27;;;;;;;24.40;20.52;;;;;;;16.17;92.95;95912.28;2055741;28;20038;-78
2022/06/29 03:38:28;;;;;;;23.50;20.73;;;;;;;16.16;93.17;95905.38;2070529;28;20166;-78
2022/06/29 03:39:30;;;;;;;27.45;19.90;;;;;;;16.17;93.40;95917.53;2080023;28;20049;-78
2022/06/29 03:40:31;;;;;;;26.65;22.10;;;;;;;16.13;94.68;95914.31;2064169;28;20046;-78
2022/06/29 03:41:32;;;;;;;23.65;21.02;;;;;;;16.10;94.17;95906.66;2080097;28;20040;-79
2022/06/29 03:42:33;;;;;;;29.35;22.60;;;;;;;16.12;93.42;95909.16;2087817;28;20041;-78
2022/06/29 03:43:34;;;;;;;27.35;22.48;;;;;;;16.12;94.14;95901.28;2055859;28;20047;-78
2022/06/29 03:44:36;;;;;;;30.95;22.48;;;;;;;16.12;94.10;95899.53;2055745;28;20468;-78
2022/06/29 03:45:37;;;;;;;29.48;22.90;;;;;;;16.04;93.49;95894.00;2071199;28;20059;-77
2022/06/29 03:46:38;;;;;;;28.13;22.55;;;;;;;15.99;94.12;95873.38;2071205;28;20433;-78
2022/06/29 03:47:39;;;;;;;26.27;22.52;;;;;;;16.10;94.02;95901.44;2063310;28;20511;-78
2022/06/29 03:48:41;;;;;;;32.22;21.30;;;;;;;16.11;94.13;95900.47;2071407;28;20045;-78
2022/06/29 03:49:42;;;;;;;28.48;22.73;;;;;;;16.09;92.79;95900.59;2071775;28;20057;-78
2022/06/29 03:50:43;;;;;;;23.30;19.65;;;;;;;16.13;92.64;95900.38;2071453;28;20050;-78
2022/06/29 03:51:44;;;;;;;25.00;20.48;;;;;;;16.14;92.44;95899.41;2079987;28;20049;-78
2022/06/29 03:52:46;;;;;;;25.88;21.23;;;;;;;16.13;92.87;95900.38;2076842;28;20068;-78
2022/06/29 03:53:47;;;;;;;23.88;20.70;;;;;;;16.15;92.38;95895.88;2081138;23;20046;-63
2022/06/29 03:54:48;;;;;;;24.35;19.75;;;;;;;16.16;92.27;95894.91;2088100;28;20053;-64
2022/06/29 03:55:50;;;;;;;22.60;20.13;;;;;;;16.16;91.61;95895.75;2071988;28;20046;-63
2022/06/29 03:56:51;;;;;;;21.60;19.27;;;;;;;16.15;91.70;95888.84;2064080;28;20123;-63
2022/06/29 03:57:52;;;;;;;23.15;19.27;;;;;;;16.16;91.85;95890.50;2072138;28;20057;-63
2022/06/29 03:58:53;;;;;;;20.80;18.58;;;;;;;16.21;92.44;95892.81;2069537;28;20438;-63
2022/06/29 03:59:54;;;;;;;23.35;20.02;;;;;;;16.21;91.85;95891.00;2068322;28;20045;-63
2022/06/29 04:00:56;;;;;;;23.02;18.50;;;;;;;16.19;91.63;95889.44;2063581;28;20053;-63
2022/06/29 04:01:57;;;;;;;20.90;18.65;;;;;;;16.15;92.29;95888.84;2071004;28;20042;-63
2022/06/29 04:02:58;;;;;;;23.52;19.73;;;;;;;16.15;91.90;95899.31;2071407;28;20046;-62
2022/06/29 04:03:59;;;;;;;21.48;18.45;;;;;;;16.16;91.53;95895.75;2065868;28;20446;-62
2022/06/29 04:05:00;;;;;;;23.25;19.42;;;;;;;16.18;91.77;95903.50;2071784;28;20054;-62
2022/06/29 04:06:02;;;;;;;21.73;19.02;;;;;;;16.15;91.36;95903.72;2072411;28;20053;-63
2022/06/29 04:07:03;;;;;;;22.55;18.45;;;;;;;16.17;91.83;95901.81;2071775;28;20050;-62
2022/06/29 04:08:05;;;;;;;24.08;17.67;;;;;;;16.13;91.61;95895.13;2063554;28;20495;-62
2022/06/29 04:09:06;;;;;;;22.10;19.48;;;;;;;16.16;91.71;95895.75;2063446;28;20063;-62
2022/06/29 04:10:07;;;;;;;20.63;18.05;;;;;;;16.25;90.87;95892.47;2068084;28;20431;-63
2022/06/29 04:11:48;;;;;;;23.25;18.65;;;;;;;16.21;91.18;95903.28;2055877;28;20058;-63
2022/06/29 04:12:31;;;;;;;23.25;19.23;;;;;;;16.21;91.49;95898.03;2058499;28;20050;-62
2022/06/29 04:13:32;;;;;;;21.92;19.52;;;;;;;16.21;91.71;95900.66;2070050;28;20037;-63
2022/06/29 04:14:33;;;;;;;20.02;17.85;;;;;;;16.22;91.25;95895.28;2079902;28;20041;-63
2022/06/29 04:15:35;;;;;;;20.77;18.15;;;;;;;16.26;90.93;95888.91;2055883;28;20051;-63
2022/06/29 04:16:37;;;;;;;20.17;17.40;;;;;;;16.26;90.34;95895.94;2063655;28;20089;-63
2022/06/29 04:17:39;;;;;;;21.17;18.83;;;;;;;16.23;90.77;95890.91;2070101;28;20046;-63
2022/06/29 04:18:40;;;;;;;23.52;17.55;;;;;;;16.23;90.34;95897.00;2071457;28;20523;-63
2022/06/29 04:19:41;;;;;;;20.52;17.02;;;;;;;16.31;89.18;95892.03;2071829;28;20053;-63
2022/06/29 04:22:04;;;;;;;23.10;17.60;;;;;;;16.37;89.50;95903.84;2071573;28;20050;-64
2022/06/29 04:23:05;;;;;;;18.50;16.55;;;;;;;16.39;89.39;95885.41;2083635;28;20044;-63
2022/06/29 04:24:06;;;;;;;21.52;17.23;;;;;;;16.34;89.81;95890.16;2073002;28;20061;-63
2022/06/29 04:25:08;;;;;;;20.65;17.92;;;;;;;16.35;89.98;95887.41;2064920;28;20427;-65
2022/06/29 04:26:09;;;;;;;19.15;17.02;;;;;;;16.27;89.47;95879.25;2073586;28;20049;-63
2022/06/29 04:27:10;;;;;;;21.08;18.77;;;;;;;16.29;91.03;95877.38;2080941;28;20041;-64
2022/06/29 04:28:11;;;;;;;21.00;17.77;;;;;;;16.34;91.06;95879.66;2073352;28;20718;-64
2022/06/29 04:29:13;;;;;;;20.90;18.67;;;;;;;16.30;89.83;95877.28;2065748;28;20431;-64
2022/06/29 04:30:14;;;;;;;20.25;17.38;;;;;;;16.30;89.63;95879.91;2073672;28;20075;-63
2022/06/29 04:31:15;;;;;;;21.63;16.63;;;;;;;16.34;90.00;95884.91;2081548;28;20042;-64
2022/06/29 04:32:16;;;;;;;20.08;17.60;;;;;;;16.37;91.02;95895.16;2064947;28;20404;-64
2022/06/29 04:33:18;;;;;;;19.17;17.02;;;;;;;16.36;89.59;95891.72;2072790;28;20042;-64
2022/06/29 04:34:19;;;;;;;18.63;16.65;;;;;;;16.33;91.14;95894.53;2072933;28;20046;-64
2022/06/29 04:35:21;;;;;;;19.45;17.42;;;;;;;16.32;89.78;95896.31;2073705;28;20057;-62
2022/06/29 04:36:22;;;;;;;19.67;17.63;;;;;;;16.28;90.45;95900.13;2073777;28;20050;-64
2022/06/29 04:37:23;;;;;;;20.55;17.33;;;;;;;16.31;90.64;95906.94;2064955;28;20823;-63
2022/06/29 04:38:24;;;;;;;20.25;18.02;;;;;;;16.30;90.19;95907.84;2056848;28;20046;-63
2022/06/29 04:39:25;;;;;;;22.05;17.00;;;;;;;16.32;90.11;95908.59;2056527;28;20042;-62
2022/06/29 04:40:27;;;;;;;23.27;18.08;;;;;;;16.31;90.65;95910.38;2072890;28;20435;-63
2022/06/29 04:41:28;;;;;;;23.92;16.77;;;;;;;16.44;90.55;95909.47;2081389;28;20499;-63
2022/06/29 04:42:29;;;;;;;17.65;15.75;;;;;;;16.46;90.44;95916.28;2073151;28;20045;-62
2022/06/29 04:43:31;;;;;;;18.13;15.80;;;;;;;16.44;90.30;95922.59;2065187;28;20053;-63
2022/06/29 04:44:32;;;;;;;17.20;15.35;;;;;;;16.50;90.13;95924.78;2073416;28;20057;-63
2022/06/29 04:46:54;;;;;;;19.67;17.35;;;;;;;16.50;89.13;95923.00;2070418;28;20554;-63
2022/06/29 04:48:03;;;;;;;18.58;16.58;;;;;;;16.45;89.98;95932.13;2081401;28;20048;-63
2022/06/29 04:49:04;;;;;;;18.77;15.23;;;;;;;16.44;90.37;95920.81;2073291;28;20045;-62